Pagosa Springs, CO (81147)

11:44 PM MDT on September 15, 2014 (GMT -0600)
Pagosa Alpha | Change Station
CLOSE
Current Station
Personal Weather Station
Location: Pagosa Springs, CO
Elevation: 7410 ft
Nearby Weather Stations

Elev 7410 ft 37.25 °N, 107.03 °W | Updated 4 seconds ago

Partly Cloudy
Partly Cloudy
59.3 °F
Feels Like 59.3 °F
N
0.0
Wind Variable Wind from NE
Gusts 1.3 mph

Today
High -- | Low -- °F
--% Chance of Precip.
Yesterday
High -- | Low -- °F
Precip. -- in
6:50 AM 7:15 PM
Waning Gibbous, 48% visible
Pressure 30.43 in
Visibility 10.0 miles
Clouds Mostly Cloudy 9000 ft
Mostly Cloudy 12000 ft
Dew Point 40 °F
Humidity 48%
Rainfall 0.00 in
Snow Depth 0 in , 0 in , 1 in
UV 0 out of 12
Pollen 5.80 out of 12
Air Quality Not available.
Flu Activity Not available.
METAR KPSO 160535Z AUTO 00000KT 10SM BKN090 BKN120 15/03 A3043 RMK AO2 T01510033

More Conditions Fewer Conditions

Pressure 30.43 in
Visibility 10.0 miles
Clouds Mostly Cloudy 9000 ft
Mostly Cloudy 12000 ft
Dew Point 40 °F
Humidity 48%
Rainfall 0.00 in
Snow Depth 0 in , 0 in , 1 in
UV 0 out of 12
Pollen 5.80 out of 12
Air Quality Not available.
Flu Activity Not available.
METAR KPSO 160535Z AUTO 00000KT 10SM BKN090 BKN120 15/03 A3043 RMK AO2 T01510033

More Conditions Fewer Conditions

10-Day Weather Forecast

Almanac

Astronomy

Sep. 15, 2014 Rise Set
Actual Time 6:50 AM MDT 7:15 PM MDT
Civil Twilight 6:24 AM MDT 7:41 PM MDT
Nautical Twilight 5:53 AM MDT 8:12 PM MDT
Astronomical Twilight 5:21 AM MDT 8:43 PM MDT
Moon No Moon Rise 1:45 PM MDT (9/15)
Length of Visible Light 13h 17m
Length of Day
12h 25m
Tomorrow will be 2m 21s shorter.
Waning Gibbous, 48% of the Moon is Illuminated
Sep 16
Waning Gibbous
Sep 24
New
Oct 1
First Quarter
Oct 8
Full
Oct 15
Last Quarter

Yesterday's Extremes

State Highs State Lows

Community

WunderPhotos

Upload Photos

1,753,702 photos uploaded!

Nearby

Snow Depth

Station Depth Elevation
Beaver Divide 0 in 8280 ft
Mesa Lakes 0 in 10000 ft
Rough And Tumble 1 in 10360 ft
Tower 0 in 10500 ft
Columbus Basin 0 in 10785 ft

Earthquake Activity

City Distance Mag. Time & Date
No recent earthquake activity has been reported nearby.
Minimum magnitude displayed is 2.5.

Coastal Water Temperatures

Place Temperature
No Stations Reporting

Nearby Weather Stations